sensor_id;sensor_type;location;lat;lon;timestamp;pressure;altitude;pressure_sealevel;temperature;humidity
4590;BME280;2307;48.448;9.216;2023-08-12T00:00:29;95772.41;;;21.92;100.00
4590;BME280;2307;48.448;9.216;2023-08-12T00:02:56;95776.78;;;22.02;100.00
4590;BME280;2307;48.448;9.216;2023-08-12T00:05:22;95774.94;;;22.16;100.00
4590;BME280;2307;48.448;9.216;2023-08-12T00:07:49;95775.72;;;22.16;100.00
4590;BME280;2307;48.448;9.216;2023-08-12T00:10:15;95766.13;;;22.10;100.00
4590;BME280;2307;48.448;9.216;2023-08-12T00:12:42;95757.88;;;22.07;100.00
4590;BME280;2307;48.448;9.216;2023-08-12T00:15:10;95757.09;;;22.06;100.00
4590;BME280;2307;48.448;9.216;2023-08-12T00:17:37;95757.19;;;22.15;100.00
4590;BME280;2307;48.448;9.216;2023-08-12T00:20:06;95759.25;;;22.04;100.00
4590;BME280;2307;48.448;9.216;2023-08-12T00:22:35;95752.78;;;22.05;100.00
4590;BME280;2307;48.448;9.216;2023-08-12T00:25:02;95751.69;;;22.06;100.00
4590;BME280;2307;48.448;9.216;2023-08-12T00:27:28;95750.69;;;22.02;100.00
4590;BME280;2307;48.448;9.216;2023-08-12T00:29:55;95745.53;;;22.06;100.00
4590;BME280;2307;48.448;9.216;2023-08-12T00:32:22;95749.59;;;22.03;100.00
4590;BME280;2307;48.448;9.216;2023-08-12T00:34:49;95745.41;;;21.97;100.00
4590;BME280;2307;48.448;9.216;2023-08-12T00:37:15;95739.69;;;21.85;100.00
4590;BME280;2307;48.448;9.216;2023-08-12T00:39:42;95735.59;;;21.74;100.00
4590;BME280;2307;48.448;9.216;2023-08-12T00:42:08;95738.38;;;21.69;100.00
4590;BME280;2307;48.448;9.216;2023-08-12T00:44:34;95729.31;;;21.65;100.00
4590;BME280;2307;48.448;9.216;2023-08-12T00:47:01;95736.78;;;21.68;100.00
4590;BME280;2307;48.448;9.216;2023-08-12T00:49:29;95732.47;;;21.67;100.00
4590;BME280;2307;48.448;9.216;2023-08-12T00:51:57;95728.28;;;21.61;100.00
4590;BME280;2307;48.448;9.216;2023-08-12T00:54:24;95723.41;;;21.49;100.00
4590;BME280;2307;48.448;9.216;2023-08-12T00:56:52;95731.69;;;21.53;100.00
4590;BME280;2307;48.448;9.216;2023-08-12T00:59:19;95726.09;;;21.49;100.00
4590;BME280;2307;48.448;9.216;2023-08-12T01:01:45;95723.09;;;21.51;100.00
4590;BME280;2307;48.448;9.216;2023-08-12T01:04:12;95725.72;;;21.56;100.00
4590;BME280;2307;48.448;9.216;2023-08-12T01:06:40;95724.59;;;21.57;100.00
4590;BME280;2307;48.448;9.216;2023-08-12T01:09:07;95719.91;;;21.49;100.00
4590;BME280;2307;48.448;9.216;2023-08-12T01:11:35;95718.81;;;21.50;100.00
4590;BME280;2307;48.448;9.216;2023-08-12T01:14:04;95711.16;;;21.57;100.00
4590;BME280;2307;48.448;9.216;2023-08-12T01:16:33;95715.03;;;21.51;100.00
4590;BME280;2307;48.448;9.216;2023-08-12T01:19:00;95712.34;;;21.51;100.00
4590;BME280;2307;48.448;9.216;2023-08-12T01:21:28;95704.38;;;21.46;100.00
4590;BME280;2307;48.448;9.216;2023-08-12T01:23:57;95702.78;;;21.45;100.00
4590;BME280;2307;48.448;9.216;2023-08-12T01:26:23;95698.97;;;21.32;100.00
4590;BME280;2307;48.448;9.216;2023-08-12T01:28:50;95705.31;;;21.23;100.00
4590;BME280;2307;48.448;9.216;2023-08-12T01:31:18;95695.63;;;21.22;100.00
4590;BME280;2307;48.448;9.216;2023-08-12T01:33:52;95697.34;;;21.17;100.00
4590;BME280;2307;48.448;9.216;2023-08-12T01:36:20;95689.41;;;21.07;100.00
4590;BME280;2307;48.448;9.216;2023-08-12T01:38:47;95692.34;;;21.11;100.00
4590;BME280;2307;48.448;9.216;2023-08-12T01:41:18;95692.56;;;21.14;100.00
4590;BME280;2307;48.448;9.216;2023-08-12T01:43:44;95682.63;;;21.15;100.00
4590;BME280;2307;48.448;9.216;2023-08-12T01:46:11;95678.53;;;21.17;100.00
4590;BME280;2307;48.448;9.216;2023-08-12T01:48:38;95677.41;;;21.18;100.00
4590;BME280;2307;48.448;9.216;2023-08-12T01:51:04;95680.84;;;21.24;100.00
4590;BME280;2307;48.448;9.216;2023-08-12T01:53:30;95678.84;;;21.30;100.00
4590;BME280;2307;48.448;9.216;2023-08-12T01:55:57;95688.81;;;21.29;100.00
4590;BME280;2307;48.448;9.216;2023-08-12T01:58:24;95681.81;;;21.14;100.00
4590;BME280;2307;48.448;9.216;2023-08-12T02:00:51;95685.41;;;21.24;100.00
4590;BME280;2307;48.448;9.216;2023-08-12T02:03:17;95686.16;;;21.10;100.00
4590;BME280;2307;48.448;9.216;2023-08-12T02:05:44;95692.09;;;21.07;100.00
4590;BME280;2307;48.448;9.216;2023-08-12T02:08:10;95684.31;;;21.06;100.00
4590;BME280;2307;48.448;9.216;2023-08-12T02:10:36;95682.97;;;21.08;100.00
4590;BME280;2307;48.448;9.216;2023-08-12T02:13:03;95672.94;;;21.14;100.00
4590;BME280;2307;48.448;9.216;2023-08-12T02:15:31;95672.84;;;21.19;100.00
4590;BME280;2307;48.448;9.216;2023-08-12T02:17:57;95679.94;;;21.29;100.00
4590;BME280;2307;48.448;9.216;2023-08-12T02:20:25;95677.09;;;21.39;100.00
4590;BME280;2307;48.448;9.216;2023-08-12T02:22:51;95669.41;;;21.32;100.00
4590;BME280;2307;48.448;9.216;2023-08-12T02:25:17;95675.69;;;21.28;100.00
4590;BME280;2307;48.448;9.216;2023-08-12T02:27:44;95679.44;;;21.27;100.00
4590;BME280;2307;48.448;9.216;2023-08-12T02:30:10;95675.91;;;21.45;100.00
4590;BME280;2307;48.448;9.216;2023-08-12T02:32:38;95671.53;;;21.49;100.00
4590;BME280;2307;48.448;9.216;2023-08-12T02:35:08;95667.72;;;21.36;100.00
4590;BME280;2307;48.448;9.216;2023-08-12T02:37:35;95670.09;;;21.38;100.00
4590;BME280;2307;48.448;9.216;2023-08-12T02:40:01;95664.56;;;21.48;100.00
4590;BME280;2307;48.448;9.216;2023-08-12T02:42:29;95663.38;;;21.54;100.00
4590;BME280;2307;48.448;9.216;2023-08-12T02:44:56;95674.31;;;21.57;100.00
4590;BME280;2307;48.448;9.216;2023-08-12T02:47:22;95670.03;;;21.43;100.00
4590;BME280;2307;48.448;9.216;2023-08-12T02:49:50;95659.34;;;21.38;100.00
4590;BME280;2307;48.448;9.216;2023-08-12T02:52:16;95647.84;;;21.37;100.00
4590;BME280;2307;48.448;9.216;2023-08-12T02:54:42;95654.41;;;21.45;100.00
4590;BME280;2307;48.448;9.216;2023-08-12T02:57:09;95649.72;;;21.50;100.00
4590;BME280;2307;48.448;9.216;2023-08-12T02:59:35;95650.41;;;21.42;100.00
4590;BME280;2307;48.448;9.216;2023-08-12T03:02:01;95647.13;;;21.45;100.00
4590;BME280;2307;48.448;9.216;2023-08-12T03:04:29;95643.66;;;21.45;100.00
4590;BME280;2307;48.448;9.216;2023-08-12T03:06:56;95650.03;;;21.49;100.00
4590;BME280;2307;48.448;9.216;2023-08-12T03:09:23;95642.97;;;21.53;100.00
4590;BME280;2307;48.448;9.216;2023-08-12T03:11:49;95639.69;;;21.56;100.00
4590;BME280;2307;48.448;9.216;2023-08-12T03:14:15;95638.88;;;21.42;100.00
4590;BME280;2307;48.448;9.216;2023-08-12T03:16:42;95636.09;;;21.47;100.00
4590;BME280;2307;48.448;9.216;2023-08-12T03:19:08;95630.81;;;21.42;100.00
4590;BME280;2307;48.448;9.216;2023-08-12T03:21:34;95622.16;;;21.45;100.00
4590;BME280;2307;48.448;9.216;2023-08-12T03:24:02;95622.75;;;21.42;100.00
4590;BME280;2307;48.448;9.216;2023-08-12T03:26:29;95622.25;;;21.40;100.00
4590;BME280;2307;48.448;9.216;2023-08-12T03:28:55;95623.22;;;21.44;100.00
4590;BME280;2307;48.448;9.216;2023-08-12T03:31:22;95621.13;;;21.41;100.00
4590;BME280;2307;48.448;9.216;2023-08-12T03:33:48;95624.34;;;21.43;100.00
4590;BME280;2307;48.448;9.216;2023-08-12T03:36:14;95620.56;;;21.57;100.00
4590;BME280;2307;48.448;9.216;2023-08-12T03:38:41;95623.94;;;21.63;100.00
4590;BME280;2307;48.448;9.216;2023-08-12T03:41:09;95628.53;;;21.76;100.00
4590;BME280;2307;48.448;9.216;2023-08-12T03:43:35;95634.78;;;21.85;100.00
4590;BME280;2307;48.448;9.216;2023-08-12T03:46:02;95634.75;;;21.90;100.00
4590;BME280;2307;48.448;9.216;2023-08-12T03:48:29;95636.72;;;21.85;100.00
4590;BME280;2307;48.448;9.216;2023-08-12T03:50:55;95646.78;;;21.65;100.00
4590;BME280;2307;48.448;9.216;2023-08-12T03:53:21;95637.50;;;21.58;100.00
4590;BME280;2307;48.448;9.216;2023-08-12T03:55:48;95640.88;;;21.50;100.00
4590;BME280;2307;48.448;9.216;2023-08-12T03:58:16;95635.69;;;21.40;100.00
4590;BME280;2307;48.448;9.216;2023-08-12T04:00:42;95631.56;;;21.15;100.00
4590;BME280;2307;48.448;9.216;2023-08-12T04:03:08;95629.19;;;21.27;100.00
4590;BME280;2307;48.448;9.216;2023-08-12T04:05:35;95633.06;;;21.35;100.00
4590;BME280;2307;48.448;9.216;2023-08-12T04:08:01;95631.56;;;21.29;100.00
4590;BME280;2307;48.448;9.216;2023-08-12T04:10:28;95632.34;;;21.15;100.00
4590;BME280;2307;48.448;9.216;2023-08-12T04:12:54;95629.66;;;21.15;100.00
4590;BME280;2307;48.448;9.216;2023-08-12T04:15:22;95637.06;;;21.24;100.00
4590;BME280;2307;48.448;9.216;2023-08-12T04:17:48;95631.38;;;21.25;100.00
4590;BME280;2307;48.448;9.216;2023-08-12T04:20:15;95636.03;;;21.19;100.00
4590;BME280;2307;48.448;9.216;2023-08-12T04:22:41;95639.81;;;21.18;100.00
4590;BME280;2307;48.448;9.216;2023-08-12T04:25:08;95643.03;;;21.21;100.00
4590;BME280;2307;48.448;9.216;2023-08-12T04:27:34;95641.44;;;21.33;100.00
4590;BME280;2307;48.448;9.216;2023-08-12T04:30:00;95647.25;;;21.40;100.00
4590;BME280;2307;48.448;9.216;2023-08-12T04:32:28;95641.03;;;21.26;100.00
4590;BME280;2307;48.448;9.216;2023-08-12T04:34:55;95649.78;;;21.18;100.00
4590;BME280;2307;48.448;9.216;2023-08-12T04:37:21;95647.63;;;21.34;100.00
4590;BME280;2307;48.448;9.216;2023-08-12T04:39:49;95649.72;;;21.37;100.00
4590;BME280;2307;48.448;9.216;2023-08-12T04:42:15;95646.88;;;21.14;100.00
4590;BME280;2307;48.448;9.216;2023-08-12T04:44:42;95646.09;;;20.95;100.00
4590;BME280;2307;48.448;9.216;2023-08-12T04:47:08;95644.59;;;20.89;100.00
4590;BME280;2307;48.448;9.216;2023-08-12T04:49:36;95645.56;;;20.80;100.00
4590;BME280;2307;48.448;9.216;2023-08-12T04:52:03;95644.06;;;20.87;100.00
4590;BME280;2307;48.448;9.216;2023-08-12T04:54:29;95642.91;;;20.93;100.00
4590;BME280;2307;48.448;9.216;2023-08-12T04:56:56;95640.31;;;20.88;100.00
4590;BME280;2307;48.448;9.216;2023-08-12T04:59:22;95634.63;;;20.90;100.00
4590;BME280;2307;48.448;9.216;2023-08-12T05:01:48;95630.09;;;21.04;100.00
4590;BME280;2307;48.448;9.216;2023-08-12T05:04:15;95628.69;;;21.25;100.00
4590;BME280;2307;48.448;9.216;2023-08-12T05:06:42;95639.03;;;21.32;100.00
4590;BME280;2307;48.448;9.216;2023-08-12T05:09:09;95634.09;;;21.39;100.00
4590;BME280;2307;48.448;9.216;2023-08-12T05:11:35;95636.75;;;21.25;100.00
4590;BME280;2307;48.448;9.216;2023-08-12T05:14:02;95634.25;;;21.15;100.00
4590;BME280;2307;48.448;9.216;2023-08-12T05:16:28;95641.41;;;21.19;100.00
4590;BME280;2307;48.448;9.216;2023-08-12T05:18:55;95638.25;;;21.31;100.00
4590;BME280;2307;48.448;9.216;2023-08-12T05:21:21;95640.53;;;21.38;100.00
4590;BME280;2307;48.448;9.216;2023-08-12T05:23:49;95637.84;;;21.38;100.00
4590;BME280;2307;48.448;9.216;2023-08-12T05:26:15;95631.41;;;21.39;100.00
4590;BME280;2307;48.448;9.216;2023-08-12T05:28:42;95640.28;;;21.53;100.00
4590;BME280;2307;48.448;9.216;2023-08-12T05:31:08;95651.41;;;21.60;100.00
4590;BME280;2307;48.448;9.216;2023-08-12T05:33:34;95654.81;;;21.79;100.00
4590;BME280;2307;48.448;9.216;2023-08-12T05:36:01;95647.25;;;21.67;100.00
4590;BME280;2307;48.448;9.216;2023-08-12T05:38:27;95648.84;;;21.55;100.00
4590;BME280;2307;48.448;9.216;2023-08-12T05:40:55;95652.00;;;21.57;100.00
4590;BME280;2307;48.448;9.216;2023-08-12T05:43:21;95645.84;;;21.70;100.00
4590;BME280;2307;48.448;9.216;2023-08-12T05:45:48;95647.16;;;21.86;100.00
4590;BME280;2307;48.448;9.216;2023-08-12T05:48:14;95659.22;;;21.75;100.00
4590;BME280;2307;48.448;9.216;2023-08-12T05:50:40;95656.81;;;21.73;100.00
4590;BME280;2307;48.448;9.216;2023-08-12T05:53:07;95652.25;;;21.74;100.00
4590;BME280;2307;48.448;9.216;2023-08-12T05:55:33;95659.22;;;21.75;100.00
4590;BME280;2307;48.448;9.216;2023-08-12T05:58:02;95661.09;;;21.75;100.00
4590;BME280;2307;48.448;9.216;2023-08-12T06:00:29;95650.63;;;21.73;100.00
4590;BME280;2307;48.448;9.216;2023-08-12T06:02:56;95655.72;;;21.75;100.00
4590;BME280;2307;48.448;9.216;2023-08-12T06:05:22;95648.94;;;21.77;100.00
4590;BME280;2307;48.448;9.216;2023-08-12T06:07:49;95652.03;;;21.70;100.00
4590;BME280;2307;48.448;9.216;2023-08-12T06:10:15;95649.22;;;21.76;100.00
4590;BME280;2307;48.448;9.216;2023-08-12T06:12:41;95650.06;;;21.90;100.00
4590;BME280;2307;48.448;9.216;2023-08-12T06:15:09;95646.47;;;21.81;100.00
4590;BME280;2307;48.448;9.216;2023-08-12T06:17:36;95648.25;;;21.85;100.00
4590;BME280;2307;48.448;9.216;2023-08-12T06:20:02;95643.28;;;21.92;100.00
4590;BME280;2307;48.448;9.216;2023-08-12T06:22:29;95645.59;;;21.99;100.00
4590;BME280;2307;48.448;9.216;2023-08-12T06:24:55;95645.66;;;22.07;100.00
4590;BME280;2307;48.448;9.216;2023-08-12T06:27:22;95654.41;;;22.27;100.00
4590;BME280;2307;48.448;9.216;2023-08-12T06:29:48;95642.56;;;22.28;100.00
4590;BME280;2307;48.448;9.216;2023-08-12T06:32:16;95642.34;;;22.24;100.00
4590;BME280;2307;48.448;9.216;2023-08-12T06:34:42;95637.03;;;22.33;100.00
4590;BME280;2307;48.448;9.216;2023-08-12T06:37:08;95635.25;;;22.42;100.00
4590;BME280;2307;48.448;9.216;2023-08-12T06:39:35;95643.66;;;22.62;100.00
4590;BME280;2307;48.448;9.216;2023-08-12T06:42:01;95639.88;;;22.63;100.00
4590;BME280;2307;48.448;9.216;2023-08-12T06:44:28;95638.16;;;22.67;100.00
4590;BME280;2307;48.448;9.216;2023-08-12T06:46:54;95642.91;;;22.84;100.00
4590;BME280;2307;48.448;9.216;2023-08-12T06:49:22;95647.44;;;22.97;100.00
4590;BME280;2307;48.448;9.216;2023-08-12T06:51:49;95653.69;;;23.06;100.00
4590;BME280;2307;48.448;9.216;2023-08-12T06:54:15;95653.91;;;23.18;100.00
4590;BME280;2307;48.448;9.216;2023-08-12T06:56:41;95648.53;;;23.18;100.00
4590;BME280;2307;48.448;9.216;2023-08-12T06:59:08;95643.84;;;23.33;100.00
4590;BME280;2307;48.448;9.216;2023-08-12T07:01:34;95646.81;;;23.45;100.00
4590;BME280;2307;48.448;9.216;2023-08-12T07:04:00;95638.59;;;23.50;100.00
4590;BME280;2307;48.448;9.216;2023-08-12T07:06:28;95644.31;;;23.57;100.00
4590;BME280;2307;48.448;9.216;2023-08-12T07:08:54;95643.25;;;23.66;100.00
4590;BME280;2307;48.448;9.216;2023-08-12T07:11:21;95642.81;;;23.73;100.00
4590;BME280;2307;48.448;9.216;2023-08-12T07:13:47;95644.53;;;23.69;100.00
4590;BME280;2307;48.448;9.216;2023-08-12T07:16:14;95637.69;;;23.63;100.00
4590;BME280;2307;48.448;9.216;2023-08-12T07:18:40;95642.91;;;23.59;100.00
4590;BME280;2307;48.448;9.216;2023-08-12T07:21:06;95635.56;;;23.51;100.00
4590;BME280;2307;48.448;9.216;2023-08-12T07:23:34;95640.53;;;23.58;100.00
4590;BME280;2307;48.448;9.216;2023-08-12T07:26:01;95635.13;;;23.58;100.00
4590;BME280;2307;48.448;9.216;2023-08-12T07:28:27;95636.38;;;23.52;100.00
4590;BME280;2307;48.448;9.216;2023-08-12T07:30:53;95640.78;;;23.48;100.00
4590;BME280;2307;48.448;9.216;2023-08-12T07:33:20;95631.44;;;23.45;100.00
4590;BME280;2307;48.448;9.216;2023-08-12T07:35:46;95641.78;;;23.52;100.00
4590;BME280;2307;48.448;9.216;2023-08-12T07:38:12;95639.91;;;23.61;100.00
4590;BME280;2307;48.448;9.216;2023-08-12T07:40:40;95639.44;;;23.67;100.00
4590;BME280;2307;48.448;9.216;2023-08-12T07:43:07;95641.38;;;23.75;100.00
4590;BME280;2307;48.448;9.216;2023-08-12T07:45:33;95636.84;;;23.85;100.00
4590;BME280;2307;48.448;9.216;2023-08-12T07:47:59;95642.38;;;23.88;100.00
4590;BME280;2307;48.448;9.216;2023-08-12T07:50:26;95637.81;;;23.97;100.00
4590;BME280;2307;48.448;9.216;2023-08-12T07:52:52;95637.50;;;23.99;100.00
4590;BME280;2307;48.448;9.216;2023-08-12T07:55:19;95638.97;;;24.13;100.00
4590;BME280;2307;48.448;9.216;2023-08-12T07:57:46;95637.25;;;24.26;100.00
4590;BME280;2307;48.448;9.216;2023-08-12T08:00:13;95634.75;;;24.38;100.00
4590;BME280;2307;48.448;9.216;2023-08-12T08:02:40;95632.22;;;24.59;100.00
4590;BME280;2307;48.448;9.216;2023-08-12T08:05:07;95633.81;;;24.77;100.00
4590;BME280;2307;48.448;9.216;2023-08-12T08:07:33;95635.59;;;24.90;100.00
4590;BME280;2307;48.448;9.216;2023-08-12T08:10:00;95634.47;;;24.91;100.00
4590;BME280;2307;48.448;9.216;2023-08-12T08:12:26;95635.25;;;25.00;100.00
4590;BME280;2307;48.448;9.216;2023-08-12T08:14:54;95633.94;;;25.15;100.00
4590;BME280;2307;48.448;9.216;2023-08-12T08:17:20;95633.47;;;25.30;100.00
4590;BME280;2307;48.448;9.216;2023-08-12T08:19:47;95635.19;;;25.52;100.00
4590;BME280;2307;48.448;9.216;2023-08-12T08:22:13;95633.41;;;25.56;100.00
4590;BME280;2307;48.448;9.216;2023-08-12T08:24:39;95636.53;;;25.66;100.00
4590;BME280;2307;48.448;9.216;2023-08-12T08:27:06;95638.09;;;25.76;100.00
4590;BME280;2307;48.448;9.216;2023-08-12T08:29:32;95647.91;;;25.89;97.43
4590;BME280;2307;48.448;9.216;2023-08-12T08:32:00;95649.81;;;25.97;95.40
4590;BME280;2307;48.448;9.216;2023-08-12T08:34:26;95647.47;;;25.87;96.21
4590;BME280;2307;48.448;9.216;2023-08-12T08:36:52;95656.63;;;26.03;95.45
4590;BME280;2307;48.448;9.216;2023-08-12T08:39:19;95657.38;;;26.12;94.12
4590;BME280;2307;48.448;9.216;2023-08-12T08:41:46;95652.53;;;26.26;97.32
4590;BME280;2307;48.448;9.216;2023-08-12T08:44:13;95659.97;;;26.38;97.21
4590;BME280;2307;48.448;9.216;2023-08-12T08:46:41;95654.78;;;26.45;98.14
4590;BME280;2307;48.448;9.216;2023-08-12T08:49:09;95660.63;;;26.56;91.09
4590;BME280;2307;48.448;9.216;2023-08-12T08:51:36;95658.34;;;26.66;89.03
4590;BME280;2307;48.448;9.216;2023-08-12T08:54:03;95655.22;;;26.76;86.74
4590;BME280;2307;48.448;9.216;2023-08-12T08:56:30;95661.06;;;26.87;88.49
4590;BME280;2307;48.448;9.216;2023-08-12T08:58:57;95667.00;;;27.01;90.23
4590;BME280;2307;48.448;9.216;2023-08-12T09:01:24;95667.00;;;27.01;94.54
4590;BME280;2307;48.448;9.216;2023-08-12T09:03:50;95668.78;;;26.97;93.74
4590;BME280;2307;48.448;9.216;2023-08-12T09:06:19;95668.47;;;26.99;94.94
4590;BME280;2307;48.448;9.216;2023-08-12T09:08:48;95675.84;;;27.10;97.93
4590;BME280;2307;48.448;9.216;2023-08-12T09:11:14;95670.09;;;27.12;100.00
4590;BME280;2307;48.448;9.216;2023-08-12T09:13:42;95671.19;;;27.31;95.28
4590;BME280;2307;48.448;9.216;2023-08-12T09:16:08;95676.69;;;27.43;91.84
4590;BME280;2307;48.448;9.216;2023-08-12T09:18:35;95669.97;;;27.41;99.80
4590;BME280;2307;48.448;9.216;2023-08-12T09:21:02;95674.38;;;27.66;98.31
4590;BME280;2307;48.448;9.216;2023-08-12T09:23:34;95676.09;;;27.71;92.12
4590;BME280;2307;48.448;9.216;2023-08-12T09:26:01;95678.38;;;27.81;88.74
4590;BME280;2307;48.448;9.216;2023-08-12T09:28:28;95680.41;;;27.84;81.06
4590;BME280;2307;48.448;9.216;2023-08-12T09:30:54;95673.50;;;27.86;81.21
4590;BME280;2307;48.448;9.216;2023-08-12T09:33:23;95674.75;;;27.89;69.84
4590;BME280;2307;48.448;9.216;2023-08-12T09:35:50;95666.34;;;27.82;67.91
4590;BME280;2307;48.448;9.216;2023-08-12T09:38:16;95671.72;;;27.90;66.73
4590;BME280;2307;48.448;9.216;2023-08-12T09:40:46;95663.66;;;27.94;59.24
4590;BME280;2307;48.448;9.216;2023-08-12T09:43:12;95661.00;;;28.06;59.51
4590;BME280;2307;48.448;9.216;2023-08-12T09:45:40;95665.03;;;28.36;58.79
4590;BME280;2307;48.448;9.216;2023-08-12T09:48:06;95656.06;;;28.48;59.20
4590;BME280;2307;48.448;9.216;2023-08-12T09:50:34;95647.47;;;28.58;57.70
4590;BME280;2307;48.448;9.216;2023-08-12T09:53:02;95638.19;;;28.59;57.40
4590;BME280;2307;48.448;9.216;2023-08-12T09:55:29;95638.28;;;28.63;55.25
4590;BME280;2307;48.448;9.216;2023-08-12T09:57:59;95635.34;;;28.56;57.67
4590;BME280;2307;48.448;9.216;2023-08-12T10:00:26;95630.16;;;28.51;53.98
4590;BME280;2307;48.448;9.216;2023-08-12T10:02:53;95614.84;;;28.58;52.05
4590;BME280;2307;48.448;9.216;2023-08-12T10:05:21;95619.28;;;28.51;55.73
4590;BME280;2307;48.448;9.216;2023-08-12T10:07:49;95616.34;;;28.43;55.86
4590;BME280;2307;48.448;9.216;2023-08-12T10:10:15;95621.78;;;28.43;55.16
4590;BME280;2307;48.448;9.216;2023-08-12T10:12:41;95620.34;;;28.34;55.63
4590;BME280;2307;48.448;9.216;2023-08-12T10:15:10;95627.47;;;28.26;59.27
4590;BME280;2307;48.448;9.216;2023-08-12T10:17:37;95621.03;;;28.19;61.02
4590;BME280;2307;48.448;9.216;2023-08-12T10:20:04;95623.59;;;28.39;56.94
4590;BME280;2307;48.448;9.216;2023-08-12T10:22:32;95619.72;;;28.53;54.45
4590;BME280;2307;48.448;9.216;2023-08-12T10:24:59;95614.84;;;28.58;52.01
4590;BME280;2307;48.448;9.216;2023-08-12T10:27:27;95618.31;;;28.83;54.37
4590;BME280;2307;48.448;9.216;2023-08-12T10:29:55;95621.00;;;28.95;55.72
4590;BME280;2307;48.448;9.216;2023-08-12T10:32:23;95615.25;;;29.12;56.32
4590;BME280;2307;48.448;9.216;2023-08-12T10:34:53;95620.25;;;29.10;58.57
4590;BME280;2307;48.448;9.216;2023-08-12T10:37:20;95641.47;;;29.05;59.86
4590;BME280;2307;48.448;9.216;2023-08-12T10:39:47;95645.06;;;28.81;63.48
4590;BME280;2307;48.448;9.216;2023-08-12T10:42:13;95640.00;;;28.67;69.98
4590;BME280;2307;48.448;9.216;2023-08-12T10:44:40;95638.06;;;28.56;68.95
4590;BME280;2307;48.448;9.216;2023-08-12T10:47:07;95643.72;;;28.63;70.69
4590;BME280;2307;48.448;9.216;2023-08-12T10:49:37;95638.25;;;28.87;66.95
4590;BME280;2307;48.448;9.216;2023-08-12T10:52:04;95638.25;;;29.15;59.09
4590;BME280;2307;48.448;9.216;2023-08-12T10:54:30;95636.41;;;29.19;56.50
4590;BME280;2307;48.448;9.216;2023-08-12T10:59:50;95634.91;;;29.33;57.38
4590;BME280;2307;48.448;9.216;2023-08-12T11:02:18;95648.59;;;29.37;54.83
4590;BME280;2307;48.448;9.216;2023-08-12T11:04:49;95644.44;;;29.27;52.77
4590;BME280;2307;48.448;9.216;2023-08-12T11:07:17;95639.22;;;29.22;51.79
4590;BME280;2307;48.448;9.216;2023-08-12T11:09:45;95637.75;;;28.97;55.52
4590;BME280;2307;48.448;9.216;2023-08-12T11:12:16;95641.22;;;29.10;55.37
4590;BME280;2307;48.448;9.216;2023-08-12T11:14:49;95648.44;;;28.90;56.26
4590;BME280;2307;48.448;9.216;2023-08-12T11:17:15;95652.09;;;28.82;56.05
4590;BME280;2307;48.448;9.216;2023-08-12T11:19:42;95632.41;;;29.00;53.55
4590;BME280;2307;48.448;9.216;2023-08-12T11:22:10;95631.56;;;29.12;52.05
4590;BME280;2307;48.448;9.216;2023-08-12T11:24:39;95629.38;;;29.30;51.51
4590;BME280;2307;48.448;9.216;2023-08-12T11:27:06;95630.63;;;29.48;47.92
4590;BME280;2307;48.448;9.216;2023-08-12T11:29:35;95629.16;;;29.66;45.49
4590;BME280;2307;48.448;9.216;2023-08-12T11:32:01;95621.25;;;29.77;44.99
4590;BME280;2307;48.448;9.216;2023-08-12T11:34:28;95620.63;;;29.68;43.92
4590;BME280;2307;48.448;9.216;2023-08-12T11:36:54;95618.25;;;29.82;43.35
4590;BME280;2307;48.448;9.216;2023-08-12T11:39:22;95616.16;;;29.91;43.15
4590;BME280;2307;48.448;9.216;2023-08-12T11:41:48;95612.50;;;29.99;42.01
4590;BME280;2307;48.448;9.216;2023-08-12T11:44:15;95622.47;;;30.26;42.68
4590;BME280;2307;48.448;9.216;2023-08-12T11:46:42;95622.72;;;30.37;41.94
4590;BME280;2307;48.448;9.216;2023-08-12T11:49:08;95617.97;;;30.34;42.07
4590;BME280;2307;48.448;9.216;2023-08-12T11:51:35;95619.75;;;30.61;41.30
4590;BME280;2307;48.448;9.216;2023-08-12T11:54:01;95626.59;;;30.71;41.31
4590;BME280;2307;48.448;9.216;2023-08-12T11:56:30;95609.31;;;30.63;41.84
4590;BME280;2307;48.448;9.216;2023-08-12T11:58:56;95608.41;;;30.40;42.43
4590;BME280;2307;48.448;9.216;2023-08-12T12:01:23;95605.81;;;30.12;43.65
4590;BME280;2307;48.448;9.216;2023-08-12T12:03:51;95618.53;;;30.08;43.85
4590;BME280;2307;48.448;9.216;2023-08-12T12:06:17;95611.66;;;29.51;44.47
4590;BME280;2307;48.448;9.216;2023-08-12T12:08:44;95612.47;;;29.52;45.63
4590;BME280;2307;48.448;9.216;2023-08-12T12:11:10;95603.59;;;29.55;45.88
4590;BME280;2307;48.448;9.216;2023-08-12T12:13:38;95608.06;;;29.47;47.36
4590;BME280;2307;48.448;9.216;2023-08-12T12:16:09;95623.13;;;29.29;49.40
4590;BME280;2307;48.448;9.216;2023-08-12T12:18:36;95621.22;;;29.18;49.18
4590;BME280;2307;48.448;9.216;2023-08-12T12:21:02;95626.59;;;29.14;50.74
4590;BME280;2307;48.448;9.216;2023-08-12T12:23:29;95632.91;;;29.18;49.62
4590;BME280;2307;48.448;9.216;2023-08-12T12:25:59;95631.69;;;28.88;51.03
4590;BME280;2307;48.448;9.216;2023-08-12T12:28:26;95639.56;;;28.65;51.95
4590;BME280;2307;48.448;9.216;2023-08-12T12:30:54;95657.78;;;28.53;52.48
4590;BME280;2307;48.448;9.216;2023-08-12T12:33:20;95669.81;;;28.27;54.02
4590;BME280;2307;48.448;9.216;2023-08-12T12:35:47;95667.44;;;28.14;53.17
4590;BME280;2307;48.448;9.216;2023-08-12T12:38:14;95675.47;;;28.10;52.75
4590;BME280;2307;48.448;9.216;2023-08-12T12:40:40;95684.94;;;27.92;52.91
4590;BME280;2307;48.448;9.216;2023-08-12T12:43:07;95712.09;;;27.59;54.75
4590;BME280;2307;48.448;9.216;2023-08-12T12:45:33;95748.75;;;27.32;89.79
4590;BME280;2307;48.448;9.216;2023-08-12T12:48:01;95747.50;;;24.89;100.00
4590;BME280;2307;48.448;9.216;2023-08-12T12:50:27;95769.53;;;23.64;100.00
4590;BME280;2307;48.448;9.216;2023-08-12T12:52:54;95757.19;;;22.69;100.00
4590;BME280;2307;48.448;9.216;2023-08-12T12:55:20;95745.81;;;22.32;100.00
4590;BME280;2307;48.448;9.216;2023-08-12T12:57:47;95750.00;;;22.24;100.00
4590;BME280;2307;48.448;9.216;2023-08-12T13:00:13;95749.59;;;22.17;100.00
4590;BME280;2307;48.448;9.216;2023-08-12T13:02:41;95751.28;;;21.99;100.00
4590;BME280;2307;48.448;9.216;2023-08-12T13:05:09;95724.13;;;21.68;100.00
4590;BME280;2307;48.448;9.216;2023-08-12T13:07:35;95702.31;;;21.70;100.00
4590;BME280;2307;48.448;9.216;2023-08-12T13:10:02;95704.50;;;21.68;100.00
4590;BME280;2307;48.448;9.216;2023-08-12T13:12:28;95695.44;;;21.64;100.00
4590;BME280;2307;48.448;9.216;2023-08-12T13:14:55;95673.41;;;21.48;100.00